Time;durP1;ratioP1;P1;durP2;ratioP2;P2;SDS_P1;SDS_P2;PMS_P1;PMS_P2;Temp;Humidity;BMP_temperature;BMP_pressure;BME280_temperature;BME280_humidity;BME280_pressure;Samples;Min_cycle;Max_cycle;Signal;HPM_P1;HPM_P2
2023/03/19 00:00:41;;;;;;;21.83;15.53;;;9.40;99.90;;;;;;5035663;28;20198;-46
2023/03/19 00:03:08;;;;;;;18.43;14.77;;;9.40;99.90;;;;;;5054615;28;20290;-51
2023/03/19 00:05:34;;;;;;;16.37;14.53;;;9.40;99.90;;;;;;5046604;28;20969;-47
2023/03/19 00:08:01;;;;;;;17.27;13.53;;;9.40;99.90;;;;;;5046211;28;20225;-52
2023/03/19 00:10:29;;;;;;;16.23;13.70;;;9.40;99.90;;;;;;5039940;28;20191;-46
2023/03/19 00:12:55;;;;;;;18.97;13.57;;;9.40;99.90;;;;;;5043090;28;20208;-48
2023/03/19 00:15:22;;;;;;;16.23;13.83;;;9.40;99.90;;;;;;5030341;28;20344;-47
2023/03/19 00:17:50;;;;;;;15.37;13.73;;;9.40;99.90;;;;;;5051542;28;20195;-47
2023/03/19 00:20:19;;;;;;;18.67;13.50;;;9.40;99.90;;;;;;5042685;28;20219;-49
2023/03/19 00:22:46;;;;;;;15.10;13.53;;;9.40;99.90;;;;;;5054482;28;20210;-46
2023/03/19 00:25:13;;;;;;;16.37;13.70;;;9.40;99.90;;;;;;5060285;28;20218;-51
2023/03/19 00:27:42;;;;;;;18.30;13.87;;;9.40;99.90;;;;;;5062347;28;20229;-47
2023/03/19 00:30:10;;;;;;;15.43;13.30;;;9.40;99.90;;;;;;5042503;28;20195;-47
2023/03/19 00:32:38;;;;;;;16.23;12.53;;;9.40;99.90;;;;;;5039995;28;20203;-47
2023/03/19 00:35:07;;;;;;;14.13;11.63;;;9.40;99.90;;;;;;5046152;28;20199;-49
2023/03/19 00:37:34;;;;;;;15.57;11.23;;;9.40;99.90;;;;;;5043749;28;20230;-49
2023/03/19 00:40:00;;;;;;;13.83;11.50;;;9.50;99.90;;;;;;5042619;28;20237;-48
2023/03/19 00:42:28;;;;;;;14.43;11.70;;;9.60;99.90;;;;;;5040513;28;20195;-48
2023/03/19 00:44:56;;;;;;;12.97;11.40;;;9.60;99.90;;;;;;5041333;28;20209;-49
2023/03/19 00:47:24;;;;;;;16.17;11.87;;;9.60;99.90;;;;;;5030102;28;20230;-47
2023/03/19 00:49:51;;;;;;;12.17;10.90;;;9.60;99.90;;;;;;5046898;28;20202;-49
2023/03/19 00:52:18;;;;;;;14.87;10.80;;;9.50;99.90;;;;;;5048935;28;20214;-52
2023/03/19 00:54:45;;;;;;;13.30;10.40;;;9.50;99.90;;;;;;5046601;28;20624;-47
2023/03/19 00:57:12;;;;;;;13.03;11.67;;;9.50;99.90;;;;;;5045085;28;20654;-49
2023/03/19 00:59:40;;;;;;;12.43;10.90;;;9.40;99.90;;;;;;5045787;28;20991;-46
2023/03/19 01:02:08;;;;;;;13.87;11.23;;;9.30;99.90;;;;;;5048092;28;20231;-50
2023/03/19 01:04:35;;;;;;;12.63;11.30;;;9.30;99.90;;;;;;5042187;28;20264;-49
2023/03/19 01:07:05;;;;;;;13.07;10.03;;;9.30;99.90;;;;;;5050082;28;20262;-50
2023/03/19 01:09:34;;;;;;;11.80;10.60;;;9.30;99.90;;;;;;5044759;28;20206;-49
2023/03/19 01:12:03;;;;;;;12.30;9.93;;;9.30;99.90;;;;;;5045859;28;20203;-50
2023/03/19 01:14:31;;;;;;;15.13;12.30;;;9.30;99.90;;;;;;5044620;28;20203;-49
2023/03/19 01:16:57;;;;;;;12.20;10.90;;;9.20;99.90;;;;;;5048063;28;20301;-45
2023/03/19 01:19:26;;;;;;;15.23;10.97;;;9.20;99.90;;;;;;5047286;28;23561;-48
2023/03/19 01:21:53;;;;;;;14.97;12.00;;;9.20;99.90;;;;;;5045005;28;20261;-48
2023/03/19 01:24:22;;;;;;;14.20;10.37;;;9.20;99.90;;;;;;5048025;28;20191;-45
2023/03/19 01:26:53;;;;;;;20.43;10.17;;;9.10;99.90;;;;;;5045962;28;20219;-46
2023/03/19 01:29:29;;;;;;;11.67;9.93;;;9.10;99.90;;;;;;5049753;28;20523;-46
2023/03/19 01:32:00;;;;;;;10.87;9.77;;;9.10;99.90;;;;;;5047618;28;20238;-47
2023/03/19 01:34:40;;;;;;;11.47;9.93;;;9.10;99.90;;;;;;5036123;28;20836;-46
2023/03/19 01:37:09;;;;;;;11.07;9.40;;;9.10;99.90;;;;;;5054204;28;20312;-49
2023/03/19 01:39:36;;;;;;;13.63;9.70;;;9.10;99.90;;;;;;5048040;28;20276;-45
2023/03/19 01:42:07;;;;;;;11.07;9.53;;;9.10;99.90;;;;;;5045890;28;20195;-51
2023/03/19 01:44:44;;;;;;;12.67;10.20;;;9.10;99.90;;;;;;5045549;28;20590;-48
2023/03/19 01:47:41;;;;;;;13.33;9.50;;;9.10;99.90;;;;;;5041279;28;20215;-49
2023/03/19 01:50:24;;;;;;;9.97;8.97;;;9.00;99.90;;;;;;5037366;28;20301;-50
2023/03/19 01:53:17;;;;;;;13.00;9.20;;;8.90;99.90;;;;;;5044264;28;20211;-48
2023/03/19 01:55:49;;;;;;;11.20;9.57;;;8.90;99.90;;;;;;5045444;28;20235;-51
2023/03/19 01:58:28;;;;;;;10.17;8.93;;;8.90;99.90;;;;;;5044421;28;20241;-48
2023/03/19 02:01:19;;;;;;;12.60;9.83;;;8.80;99.90;;;;;;5061973;28;20206;-47
2023/03/19 02:03:51;;;;;;;10.87;9.57;;;8.80;99.90;;;;;;5043883;28;20212;-45
2023/03/19 02:06:29;;;;;;;16.03;10.57;;;8.80;99.90;;;;;;5034957;28;20215;-47
2023/03/19 02:08:57;;;;;;;11.57;10.17;;;8.80;99.90;;;;;;5046945;28;20227;-47
2023/03/19 02:11:25;;;;;;;12.57;10.87;;;8.80;99.90;;;;;;5048568;28;20847;-48
2023/03/19 02:13:53;;;;;;;12.33;10.17;;;8.80;99.90;;;;;;5049431;28;20821;-50
2023/03/19 02:16:20;;;;;;;10.30;9.30;;;8.80;99.90;;;;;;5044064;28;20269;-47
2023/03/19 02:18:48;;;;;;;12.40;9.80;;;8.80;99.90;;;;;;5044173;28;20230;-48
2023/03/19 02:21:17;;;;;;;12.10;10.50;;;8.80;99.90;;;;;;5031622;28;20268;-47
2023/03/19 02:23:55;;;;;;;10.07;9.00;;;8.80;99.90;;;;;;5051231;28;20207;-47
2023/03/19 02:26:47;;;;;;;10.07;8.77;;;8.90;99.90;;;;;;5059082;28;20598;-50
2023/03/19 02:29:33;;;;;;;10.73;9.33;;;8.80;99.90;;;;;;5045708;28;20253;-48
2023/03/19 02:32:02;;;;;;;10.40;9.30;;;8.80;99.90;;;;;;5041920;28;20207;-51
2023/03/19 02:34:38;;;;;;;11.80;9.43;;;8.70;99.90;;;;;;5042041;28;20218;-48
2023/03/19 02:37:10;;;;;;;9.97;8.97;;;8.80;99.90;;;;;;5031491;28;20242;-50
2023/03/19 02:39:46;;;;;;;12.37;9.20;;;8.70;99.90;;;;;;5057769;28;20582;-47
2023/03/19 02:42:15;;;;;;;10.70;9.60;;;8.70;99.90;;;;;;5046869;28;20206;-47
2023/03/19 02:44:42;;;;;;;15.17;9.63;;;8.70;99.90;;;;;;5064938;28;20745;-47
2023/03/19 02:47:09;;;;;;;10.10;9.03;;;8.70;99.90;;;;;;5060750;28;20964;-46
2023/03/19 02:49:36;;;;;;;11.53;9.07;;;8.60;99.90;;;;;;5051537;28;20219;-47
2023/03/19 02:52:03;;;;;;;10.63;9.07;;;8.60;99.90;;;;;;5031216;28;20677;-46
2023/03/19 02:54:30;;;;;;;12.47;9.47;;;8.60;99.90;;;;;;5052162;28;20225;-47
2023/03/19 02:56:57;;;;;;;8.83;8.03;;;8.60;99.90;;;;;;5043714;28;20216;-49
2023/03/19 02:59:26;;;;;;;9.40;8.40;;;8.60;99.90;;;;;;5042927;28;20227;-47
2023/03/19 03:01:52;;;;;;;9.97;8.40;;;8.60;99.90;;;;;;5043311;28;20218;-49
2023/03/19 03:04:20;;;;;;;9.63;8.63;;;8.60;99.90;;;;;;5042821;28;20786;-48
2023/03/19 03:06:47;;;;;;;10.43;9.20;;;8.60;99.90;;;;;;5042655;28;20220;-50
2023/03/19 03:09:16;;;;;;;9.50;8.50;;;8.60;99.90;;;;;;5039715;28;20718;-46
2023/03/19 03:11:43;;;;;;;11.53;7.77;;;8.60;99.90;;;;;;5061507;28;20218;-49
2023/03/19 03:14:10;;;;;;;9.33;8.07;;;8.50;99.90;;;;;;5047494;28;20894;-46
2023/03/19 03:16:38;;;;;;;9.00;7.60;;;8.50;99.90;;;;;;5062987;28;20276;-47
2023/03/19 03:19:05;;;;;;;11.17;7.97;;;8.40;99.90;;;;;;5037290;28;20233;-50
2023/03/19 03:21:33;;;;;;;9.10;7.60;;;8.40;99.90;;;;;;5062801;28;20212;-47
2023/03/19 03:24:00;;;;;;;11.17;9.00;;;8.40;99.90;;;;;;5040916;28;20572;-49
2023/03/19 03:26:46;;;;;;;8.53;7.73;;;8.30;99.90;;;;;;5049071;28;20230;-47
2023/03/19 03:29:15;;;;;;;9.43;7.17;;;8.30;99.90;;;;;;5040464;28;20902;-46
2023/03/19 03:31:43;;;;;;;8.93;7.83;;;8.20;99.90;;;;;;5045189;28;20211;-47
2023/03/19 03:34:10;;;;;;;9.50;7.80;;;8.20;99.90;;;;;;5040443;28;20301;-48
2023/03/19 03:36:36;;;;;;;9.00;7.83;;;8.10;99.90;;;;;;5043669;28;20270;-46
2023/03/19 03:39:05;;;;;;;8.67;7.87;;;8.10;99.90;;;;;;5029744;28;20203;-48
2023/03/19 03:41:31;;;;;;;8.53;7.73;;;8.10;99.90;;;;;;5050254;28;20256;-46
2023/03/19 03:44:00;;;;;;;9.37;8.47;;;8.00;99.90;;;;;;5047930;28;20783;-50
2023/03/19 03:46:29;;;;;;;9.50;8.50;;;8.00;99.90;;;;;;5042614;28;20297;-47
2023/03/19 03:48:57;;;;;;;8.73;7.87;;;7.90;99.90;;;;;;5041294;28;20309;-47
2023/03/19 03:51:24;;;;;;;9.57;7.90;;;7.90;99.90;;;;;;5040043;28;20210;-45
2023/03/19 03:53:53;;;;;;;10.77;8.30;;;7.90;99.90;;;;;;5044957;28;20280;-49
2023/03/19 03:56:20;;;;;;;9.27;8.30;;;7.90;99.90;;;;;;5037923;28;20234;-47
2023/03/19 03:58:47;;;;;;;11.13;8.57;;;7.90;99.90;;;;;;5045517;28;20196;-47
2023/03/19 04:01:15;;;;;;;9.60;7.80;;;7.90;99.90;;;;;;5040110;28;20191;-49
2023/03/19 04:03:44;;;;;;;7.97;7.17;;;7.90;99.90;;;;;;5041377;28;20203;-46
2023/03/19 04:06:15;;;;;;;12.37;7.47;;;8.00;99.90;;;;;;5036037;28;20227;-46
2023/03/19 04:08:41;;;;;;;8.77;7.77;;;8.10;99.90;;;;;;5046585;28;20214;-48
2023/03/19 04:11:08;;;;;;;9.80;8.80;;;8.20;99.90;;;;;;5039380;28;20253;-47
2023/03/19 04:13:37;;;;;;;9.43;8.40;;;8.10;99.90;;;;;;5048391;28;20264;-46
2023/03/19 04:16:08;;;;;;;10.70;8.70;;;8.10;99.90;;;;;;5058244;28;20260;-49
2023/03/19 04:18:36;;;;;;;9.87;8.27;;;8.00;99.90;;;;;;5061769;28;20199;-46
2023/03/19 04:21:04;;;;;;;8.70;7.90;;;8.00;99.90;;;;;;5041288;28;20203;-49
2023/03/19 04:23:55;;;;;;;10.60;8.13;;;8.00;99.90;;;;;;5042283;28;20227;-47
2023/03/19 04:26:23;;;;;;;9.83;8.03;;;7.90;99.90;;;;;;5040931;28;20218;-49
2023/03/19 04:28:50;;;;;;;7.30;6.60;;;7.90;99.90;;;;;;5039858;28;20214;-50
2023/03/19 04:31:17;;;;;;;8.67;7.40;;;8.00;99.90;;;;;;5042694;28;20834;-49
2023/03/19 04:33:45;;;;;;;8.57;7.73;;;8.10;99.90;;;;;;5051982;28;20194;-49
2023/03/19 04:36:12;;;;;;;8.27;6.97;;;8.20;99.90;;;;;;5039877;28;20296;-47
2023/03/19 04:38:38;;;;;;;8.43;7.10;;;8.30;99.90;;;;;;5043394;28;20237;-47
2023/03/19 04:41:07;;;;;;;6.93;6.30;;;8.30;99.90;;;;;;5039914;28;20210;-50
2023/03/19 04:43:36;;;;;;;8.67;7.47;;;8.30;99.90;;;;;;5032746;28;20211;-47
2023/03/19 04:46:06;;;;;;;10.67;7.80;;;8.30;99.90;;;;;;5045748;28;20874;-49
2023/03/19 04:48:36;;;;;;;9.00;7.70;;;8.30;99.90;;;;;;5041956;28;20585;-47
2023/03/19 04:51:07;;;;;;;8.20;7.50;;;8.20;99.90;;;;;;5042067;28;20210;-50
2023/03/19 04:53:36;;;;;;;8.70;7.80;;;8.20;99.90;;;;;;5040846;28;20932;-50
2023/03/19 04:56:27;;;;;;;7.77;7.07;;;8.20;99.90;;;;;;5042694;28;21077;-47
2023/03/19 04:58:56;;;;;;;7.77;7.07;;;8.10;99.90;;;;;;5034342;28;20195;-48
2023/03/19 05:01:23;;;;;;;8.83;6.97;;;8.10;99.90;;;;;;5048671;28;20199;-49
2023/03/19 05:03:59;;;;;;;7.90;6.13;;;8.00;99.90;;;;;;5048699;28;20217;-48
2023/03/19 05:06:26;;;;;;;7.07;6.37;;;8.10;99.90;;;;;;5047609;28;20233;-51
2023/03/19 05:08:53;;;;;;;7.13;6.13;;;8.10;99.90;;;;;;5043819;28;20293;-48
2023/03/19 05:11:22;;;;;;;7.47;6.50;;;8.20;99.90;;;;;;5039847;28;20192;-47
2023/03/19 05:14:04;;;;;;;7.80;5.97;;;8.30;99.90;;;;;;5038865;28;20203;-51
2023/03/19 05:16:44;;;;;;;7.37;6.70;;;8.20;99.90;;;;;;5031411;28;20223;-52
2023/03/19 05:19:11;;;;;;;6.67;6.07;;;8.20;99.90;;;;;;5043506;28;20188;-47
2023/03/19 05:21:38;;;;;;;6.27;5.70;;;8.30;99.90;;;;;;5042186;28;20223;-47
2023/03/19 05:24:05;;;;;;;8.13;6.83;;;8.30;99.90;;;;;;5039006;28;20269;-51
2023/03/19 05:26:36;;;;;;;7.57;5.80;;;8.20;99.90;;;;;;5042315;28;20234;-47
2023/03/19 05:29:19;;;;;;;6.40;5.80;;;8.20;99.90;;;;;;5052671;28;20218;-48
2023/03/19 05:31:58;;;;;;;6.63;6.03;;;8.10;99.90;;;;;;5045291;28;20213;-51
2023/03/19 05:34:26;;;;;;;7.03;6.33;;;8.20;99.90;;;;;;5054438;28;20183;-46
2023/03/19 05:36:52;;;;;;;7.43;6.60;;;8.30;99.90;;;;;;5054159;28;20218;-49
2023/03/19 05:39:20;;;;;;;7.53;5.83;;;8.30;99.90;;;;;;5040784;28;20204;-46
2023/03/19 05:41:47;;;;;;;5.93;5.33;;;8.30;99.90;;;;;;5045387;28;20199;-50
2023/03/19 05:44:20;;;;;;;5.73;5.23;;;8.30;99.90;;;;;;5043347;28;20195;-48
2023/03/19 05:47:16;;;;;;;8.23;6.50;;;8.30;99.90;;;;;;5039701;28;20835;-47
2023/03/19 05:49:48;;;;;;;8.27;6.63;;;8.30;99.90;;;;;;5057247;28;20241;-50
2023/03/19 05:52:16;;;;;;;6.87;6.13;;;8.30;99.90;;;;;;5042499;28;20199;-46
2023/03/19 05:54:43;;;;;;;8.27;7.03;;;8.30;99.90;;;;;;5047771;28;20679;-49
2023/03/19 05:57:28;;;;;;;7.13;6.40;;;8.30;99.90;;;;;;5046215;28;20256;-47
2023/03/19 06:00:05;;;;;;;6.07;5.47;;;8.20;99.90;;;;;;5042530;28;20637;-51
2023/03/19 06:02:32;;;;;;;6.50;5.90;;;8.20;99.90;;;;;;5037678;28;20989;-46
2023/03/19 06:05:14;;;;;;;6.63;5.93;;;8.20;99.90;;;;;;5049134;28;20239;-48
2023/03/19 06:07:42;;;;;;;7.90;6.20;;;8.30;99.90;;;;;;5045264;28;20213;-48
2023/03/19 06:10:14;;;;;;;6.57;5.97;;;8.30;99.90;;;;;;5039611;28;20942;-46
2023/03/19 06:12:41;;;;;;;7.70;6.63;;;8.40;99.90;;;;;;5044057;28;20202;-48
2023/03/19 06:15:28;;;;;;;6.87;6.27;;;8.40;99.90;;;;;;5044016;28;20222;-48
2023/03/19 06:18:02;;;;;;;6.63;6.00;;;8.50;99.90;;;;;;5037313;28;20221;-49
2023/03/19 06:20:30;;;;;;;6.37;5.77;;;8.50;99.90;;;;;;5046847;28;20202;-49
2023/03/19 06:22:58;;;;;;;8.20;6.37;;;8.50;99.90;;;;;;5043093;28;20198;-45
2023/03/19 06:25:24;;;;;;;7.03;6.17;;;8.50;99.90;;;;;;5043914;28;20281;-45
2023/03/19 06:27:52;;;;;;;8.63;5.97;;;8.60;99.90;;;;;;5046798;28;20207;-46
2023/03/19 06:30:36;;;;;;;6.83;5.57;;;8.60;99.90;;;;;;5043191;28;20221;-46
2023/03/19 06:33:30;;;;;;;6.03;5.43;;;8.60;99.90;;;;;;5034482;28;20769;-52
2023/03/19 06:35:58;;;;;;;6.47;5.83;;;8.60;99.90;;;;;;5053177;28;20229;-49
2023/03/19 06:38:25;;;;;;;7.47;6.00;;;8.60;99.90;;;;;;5046856;28;20214;-51
2023/03/19 06:40:52;;;;;;;6.90;6.30;;;8.60;99.90;;;;;;5043909;28;21199;-53
2023/03/19 06:43:40;;;;;;;8.93;6.43;;;8.60;99.90;;;;;;5043076;28;20256;-49
2023/03/19 06:46:09;;;;;;;7.30;6.60;;;8.70;99.90;;;;;;5045780;28;20229;-48
2023/03/19 06:48:36;;;;;;;8.23;7.37;;;8.80;99.90;;;;;;5032256;28;20198;-47
2023/03/19 06:51:03;;;;;;;9.83;7.33;;;8.80;99.90;;;;;;5049964;28;20219;-47
2023/03/19 06:53:30;;;;;;;7.30;6.60;;;8.80;99.90;;;;;;5042949;28;20226;-50
2023/03/19 06:55:57;;;;;;;8.10;7.30;;;8.90;99.90;;;;;;5046449;28;20226;-48
2023/03/19 06:58:24;;;;;;;7.63;6.93;;;8.90;99.90;;;;;;5047378;28;20606;-49
2023/03/19 07:00:51;;;;;;;7.87;7.03;;;9.00;99.90;;;;;;5052340;28;20194;-47
2023/03/19 07:03:19;;;;;;;9.53;8.13;;;9.10;99.90;;;;;;5042202;28;20209;-49
2023/03/19 07:05:48;;;;;;;10.50;8.07;;;9.10;99.90;;;;;;5039059;28;20242;-48
2023/03/19 07:08:16;;;;;;;11.27;8.43;;;9.20;99.90;;;;;;5052016;28;20232;-47
2023/03/19 07:10:43;;;;;;;9.10;7.73;;;9.20;99.90;;;;;;5041618;28;20227;-48
2023/03/19 07:13:10;;;;;;;10.73;8.20;;;9.40;99.90;;;;;;5040838;28;20213;-47
2023/03/19 07:15:37;;;;;;;9.80;8.13;;;9.40;99.90;;;;;;5045142;28;20218;-46
2023/03/19 07:18:04;;;;;;;10.30;8.33;;;9.50;99.90;;;;;;5040838;28;20187;-49
2023/03/19 07:20:32;;;;;;;9.60;8.27;;;9.50;99.90;;;;;;5042489;28;20207;-47
2023/03/19 07:23:00;;;;;;;9.50;8.50;;;9.60;99.90;;;;;;5045531;28;20199;-48
2023/03/19 07:25:27;;;;;;;10.00;8.43;;;9.70;99.90;;;;;;5045694;28;20314;-47
2023/03/19 07:27:54;;;;;;;12.57;9.63;;;9.70;99.90;;;;;;5035981;28;20203;-51
2023/03/19 07:30:21;;;;;;;9.57;8.33;;;9.80;99.90;;;;;;5044222;28;20216;-48
2023/03/19 07:32:47;;;;;;;10.97;8.30;;;9.80;99.90;;;;;;5055421;28;20821;-49
2023/03/19 07:35:14;;;;;;;9.90;8.60;;;9.90;99.90;;;;;;5036261;28;20219;-47
2023/03/19 07:37:42;;;;;;;9.17;8.20;;;9.90;99.90;;;;;;5041836;28;20210;-47
2023/03/19 07:40:10;;;;;;;8.70;7.90;;;10.00;99.90;;;;;;5046898;28;20199;-46
2023/03/19 07:42:38;;;;;;;8.90;7.77;;;10.10;99.90;;;;;;5046090;28;20208;-47
2023/03/19 07:45:05;;;;;;;9.13;7.40;;;10.10;99.90;;;;;;5041228;28;20191;-46
2023/03/19 07:47:32;;;;;;;8.93;8.13;;;10.20;99.90;;;;;;5054803;28;20230;-45
2023/03/19 07:50:00;;;;;;;12.57;8.73;;;10.30;99.90;;;;;;5031232;28;20215;-45
2023/03/19 07:52:27;;;;;;;8.23;7.43;;;10.40;99.90;;;;;;5053863;28;20665;-46
2023/03/19 07:54:55;;;;;;;9.07;8.17;;;10.40;99.90;;;;;;5050765;28;20569;-48
2023/03/19 07:57:24;;;;;;;9.07;8.00;;;10.60;99.90;;;;;;5047743;28;20211;-45
2023/03/19 07:59:51;;;;;;;10.37;8.33;;;10.60;99.90;;;;;;5034499;28;20672;-48
2023/03/19 08:02:18;;;;;;;11.50;8.93;;;10.70;99.90;;;;;;5054574;28;20666;-49
2023/03/19 08:04:45;;;;;;;8.70;7.37;;;10.80;99.90;;;;;;5039251;28;20203;-47
2023/03/19 08:07:12;;;;;;;8.60;7.73;;;10.90;99.90;;;;;;5048392;28;20443;-48
2023/03/19 08:09:40;;;;;;;8.93;7.73;;;11.00;99.90;;;;;;5048128;28;20234;-47
2023/03/19 08:12:09;;;;;;;8.33;7.40;;;11.10;99.90;;;;;;5047753;28;20673;-47
2023/03/19 08:14:36;;;;;;;8.40;7.03;;;11.20;99.90;;;;;;5045512;28;20210;-48
2023/03/19 08:17:03;;;;;;;8.20;7.40;;;11.30;99.90;;;;;;5056398;28;20222;-47
2023/03/19 08:19:51;;;;;;;8.80;6.67;;;11.30;99.90;;;;;;5036345;28;20209;-51
2023/03/19 08:22:19;;;;;;;8.57;7.00;;;11.40;99.90;;;;;;5043054;28;20564;-50
2023/03/19 08:24:45;;;;;;;7.00;6.30;;;11.50;99.90;;;;;;5049867;28;20883;-48
2023/03/19 08:27:13;;;;;;;7.63;6.57;;;11.50;99.90;;;;;;5044913;28;20211;-52
2023/03/19 08:29:40;;;;;;;7.70;6.27;;;11.60;99.90;;;;;;5035065;28;20261;-51
2023/03/19 08:32:08;;;;;;;7.20;6.47;;;11.70;99.90;;;;;;5058166;28;20255;-48
2023/03/19 08:34:35;;;;;;;6.97;5.87;;;11.80;99.90;;;;;;5037632;28;20333;-48
2023/03/19 08:37:02;;;;;;;6.67;6.00;;;11.90;99.90;;;;;;5054433;28;20325;-48
2023/03/19 08:39:29;;;;;;;6.77;6.17;;;11.90;99.90;;;;;;5043793;28;20919;-48
2023/03/19 08:41:56;;;;;;;6.77;6.07;;;12.00;99.90;;;;;;5042295;28;20270;-49
2023/03/19 08:44:24;;;;;;;8.20;5.87;;;12.10;99.90;;;;;;5040405;28;20199;-50
2023/03/19 08:46:51;;;;;;;7.57;6.40;;;12.10;99.90;;;;;;5041917;28;20231;-48
2023/03/19 08:49:18;;;;;;;8.07;5.90;;;12.20;99.90;;;;;;5040878;28;20199;-52
2023/03/19 08:51:45;;;;;;;6.73;6.03;;;12.20;99.90;;;;;;5034709;28;20242;-50
2023/03/19 08:54:13;;;;;;;5.93;5.43;;;12.30;99.90;;;;;;5044303;28;20324;-48
2023/03/19 08:56:39;;;;;;;8.10;5.33;;;12.40;99.90;;;;;;5041093;28;20215;-52
2023/03/19 08:59:07;;;;;;;6.80;5.70;;;12.50;99.90;;;;;;5044830;28;20213;-51
2023/03/19 09:01:36;;;;;;;6.07;5.03;;;12.60;99.90;;;;;;5036490;28;20274;-50
2023/03/19 09:04:02;;;;;;;7.50;5.07;;;12.60;99.90;;;;;;5054217;28;20198;-46
2023/03/19 09:06:30;;;;;;;5.63;4.87;;;12.70;99.90;;;;;;5032733;28;21165;-47
2023/03/19 09:08:57;;;;;;;5.57;4.43;;;12.70;99.90;;;;;;5063199;28;20203;-47
2023/03/19 09:11:24;;;;;;;5.47;5.03;;;12.70;99.90;;;;;;5047033;28;20693;-52
2023/03/19 09:13:52;;;;;;;6.67;4.83;;;12.70;99.90;;;;;;5043228;28;20225;-49
2023/03/19 09:16:18;;;;;;;6.40;4.23;;;12.80;99.90;;;;;;5041905;28;20222;-48
2023/03/19 09:18:47;;;;;;;4.93;3.97;;;12.90;99.90;;;;;;5046132;28;20257;-53
2023/03/19 09:21:13;;;;;;;6.40;3.87;;;13.00;99.90;;;;;;5044819;28;20191;-48
2023/03/19 09:23:40;;;;;;;6.07;4.00;;;13.10;99.90;;;;;;5041570;28;20210;-47
2023/03/19 09:26:07;;;;;;;4.27;3.87;;;13.30;99.90;;;;;;5044421;28;20238;-49
2023/03/19 09:28:34;;;;;;;5.77;3.37;;;13.40;99.90;;;;;;5046979;28;20207;-46
2023/03/19 09:31:05;;;;;;;3.67;3.20;;;13.60;99.90;;;;;;5034956;28;21033;-48
2023/03/19 09:33:33;;;;;;;5.00;3.13;;;13.70;99.90;;;;;;5057875;28;20199;-49
2023/03/19 09:36:01;;;;;;;4.50;3.63;;;13.90;99.90;;;;;;5046185;28;20233;-47
2023/03/19 09:38:28;;;;;;;3.10;2.80;;;14.00;99.90;;;;;;5028509;28;20195;-50
2023/03/19 09:41:08;;;;;;;5.40;3.30;;;14.10;99.90;;;;;;5055409;28;20202;-48
2023/03/19 09:43:48;;;;;;;3.33;2.90;;;14.20;99.90;;;;;;5043245;28;20257;-49
2023/03/19 09:46:19;;;;;;;2.90;2.43;;;14.20;99.90;;;;;;5041851;28;20230;-51
2023/03/19 09:48:51;;;;;;;3.33;2.67;;;14.20;99.90;;;;;;5050356;28;20250;-46
2023/03/19 09:51:27;;;;;;;2.33;2.13;;;14.20;99.90;;;;;;5044126;28;20226;-50
2023/03/19 09:53:58;;;;;;;2.93;2.30;;;14.20;99.90;;;;;;5036637;28;20206;-51
2023/03/19 09:56:25;;;;;;;2.53;2.00;;;14.10;99.90;;;;;;5049994;28;20705;-49
2023/03/19 09:58:53;;;;;;;2.70;1.70;;;14.10;99.90;;;;;;5046837;28;20270;-46
2023/03/19 10:01:26;;;;;;;4.10;1.87;;;14.10;99.90;;;;;;5045791;28;20201;-47
2023/03/19 10:04:09;;;;;;;3.00;2.10;;;14.20;99.90;;;;;;5047746;28;20611;-48
2023/03/19 10:06:39;;;;;;;2.00;1.87;;;14.20;99.90;;;;;;5042562;28;20645;-51
2023/03/19 10:09:23;;;;;;;2.13;2.00;;;14.30;99.90;;;;;;5034066;28;20207;-49
2023/03/19 10:12:03;;;;;;;2.30;2.10;;;14.30;99.90;;;;;;5057796;28;20305;-48
2023/03/19 10:14:49;;;;;;;2.23;2.13;;;14.40;99.90;;;;;;5042175;28;20199;-48
2023/03/19 10:17:20;;;;;;;3.03;1.90;;;14.40;99.90;;;;;;5039807;28;20215;-51
2023/03/19 10:19:53;;;;;;;2.97;2.40;;;14.50;99.90;;;;;;5044131;28;20207;-47
2023/03/19 10:22:26;;;;;;;1.83;1.73;;;14.40;99.90;;;;;;5043715;28;20704;-49
2023/03/19 10:24:56;;;;;;;2.53;2.00;;;14.40;99.90;;;;;;5042099;28;20211;-48
2023/03/19 10:27:25;;;;;;;2.13;2.03;;;14.40;99.90;;;;;;5048861;28;20207;-53
2023/03/19 10:29:52;;;;;;;2.33;2.13;;;14.40;99.90;;;;;;5046020;28;20634;-48
2023/03/19 10:32:26;;;;;;;3.27;2.63;;;14.50;99.90;;;;;;5045723;28;20214;-50
2023/03/19 10:34:53;;;;;;;2.53;2.30;;;14.50;99.90;;;;;;5047898;28;20249;-52
2023/03/19 10:37:25;;;;;;;3.20;2.60;;;14.60;99.90;;;;;;5046305;28;20924;-51
2023/03/19 10:39:55;;;;;;;2.63;2.40;;;14.70;99.90;;;;;;5033462;28;20282;-50
2023/03/19 10:42:38;;;;;;;3.03;1.83;;;14.70;99.90;;;;;;5047204;28;20286;-51
2023/03/19 10:45:14;;;;;;;2.57;2.00;;;14.80;99.90;;;;;;5047590;28;20303;-47
2023/03/19 10:47:43;;;;;;;2.53;2.20;;;14.80;99.90;;;;;;5054290;28;20213;-47
2023/03/19 10:50:16;;;;;;;3.63;2.00;;;14.90;99.90;;;;;;5045570;28;20199;-52
2023/03/19 10:52:45;;;;;;;2.20;2.00;;;14.90;99.90;;;;;;5052969;28;20207;-51
2023/03/19 10:55:14;;;;;;;2.47;2.27;;;14.90;99.90;;;;;;5033381;28;20207;-50
2023/03/19 10:57:43;;;;;;;2.30;1.87;;;15.00;99.90;;;;;;5052657;28;20190;-46
2023/03/19 11:00:17;;;;;;;1.87;1.77;;;15.00;99.90;;;;;;5044789;28;20211;-51
2023/03/19 11:02:48;;;;;;;2.67;1.90;;;15.00;99.90;;;;;;5043883;28;20192;-48
2023/03/19 11:05:26;;;;;;;2.00;1.60;;;15.00;99.90;;;;;;5044489;28;20229;-49
2023/03/19 11:07:59;;;;;;;2.23;2.00;;;15.10;99.90;;;;;;5051613;28;20199;-49
2023/03/19 11:10:28;;;;;;;3.77;2.50;;;15.10;99.90;;;;;;5028681;28;20211;-53
2023/03/19 11:12:59;;;;;;;2.23;2.03;;;15.20;99.90;;;;;;5049924;28;20195;-48
2023/03/19 11:15:32;;;;;;;2.87;2.40;;;15.30;99.90;;;;;;5041619;28;20564;-49
2023/03/19 11:18:05;;;;;;;3.30;2.67;;;15.50;99.90;;;;;;5045152;28;20209;-47
2023/03/19 11:20:36;;;;;;;2.80;2.53;;;15.50;99.90;;;;;;5038959;28;20219;-49
2023/03/19 11:23:10;;;;;;;3.70;2.57;;;15.50;99.90;;;;;;5044619;28;20210;-49
2023/03/19 11:25:41;;;;;;;3.13;2.43;;;15.70;99.90;;;;;;5042061;28;20476;-47
2023/03/19 11:28:12;;;;;;;2.40;2.20;;;15.80;99.90;;;;;;5035108;28;20203;-50
2023/03/19 11:30:49;;;;;;;2.70;2.50;;;15.80;99.90;;;;;;5045565;28;20235;-47
2023/03/19 11:33:52;;;;;;;4.47;3.03;;;15.80;99.90;;;;;;5054573;28;20245;-49
2023/03/19 11:36:26;;;;;;;3.47;2.77;;;15.90;99.90;;;;;;5046453;28;20229;-50
2023/03/19 11:39:27;;;;;;;3.33;2.93;;;15.70;99.90;;;;;;5043718;28;20341;-49
2023/03/19 11:42:06;;;;;;;3.37;3.07;;;15.70;99.90;;;;;;5038778;28;20203;-48
2023/03/19 11:44:39;;;;;;;3.90;2.87;;;15.70;99.90;;;;;;5051682;28;20195;-47
2023/03/19 11:47:12;;;;;;;3.60;3.30;;;15.70;99.90;;;;;;5058999;28;20323;-50
2023/03/19 11:49:51;;;;;;;3.73;3.13;;;15.80;99.90;;;;;;5034758;28;20210;-48
2023/03/19 11:52:47;;;;;;;4.77;3.30;;;15.90;99.90;;;;;;5046874;28;20304;-49
2023/03/19 11:55:21;;;;;;;3.27;2.97;;;15.90;99.90;;;;;;5041596;28;20232;-47
2023/03/19 11:58:05;;;;;;;3.33;3.03;;;15.90;99.90;;;;;;5033108;28;20225;-50
2023/03/19 12:00:38;;;;;;;3.83;3.50;;;16.00;99.90;;;;;;5050042;28;20199;-49
2023/03/19 12:03:37;;;;;;;4.13;3.70;;;16.00;99.90;;;;;;5059412;28;20204;-48
2023/03/19 12:06:11;;;;;;;5.47;4.00;;;16.00;99.90;;;;;;5031288;28;20238;-46
2023/03/19 12:09:05;;;;;;;4.00;3.50;;;16.10;99.90;;;;;;5037190;28;20647;-49
2023/03/19 12:11:43;;;;;;;4.10;3.50;;;16.20;99.90;;;;;;5043970;28;20272;-47
2023/03/19 12:14:45;;;;;;;3.90;3.60;;;16.20;99.90;;;;;;5038494;28;20234;-49
2023/03/19 12:17:28;;;;;;;4.30;3.90;;;16.10;99.90;;;;;;5042704;28;21039;-49
2023/03/19 12:20:17;;;;;;;6.67;4.40;;;16.00;99.90;;;;;;5038439;28;20207;-51
2023/03/19 12:22:59;;;;;;;4.13;3.80;;;16.00;99.90;;;;;;5042655;28;20685;-49
2023/03/19 12:25:52;;;;;;;4.10;3.70;;;16.10;99.90;;;;;;5048292;28;20222;-47
2023/03/19 12:28:26;;;;;;;5.93;3.57;;;16.10;99.90;;;;;;5031455;28;20211;-47
2023/03/19 12:31:22;;;;;;;7.87;4.13;;;16.20;99.90;;;;;;5053941;28;20218;-51
2023/03/19 12:33:56;;;;;;;6.30;3.03;;;16.10;99.90;;;;;;5046798;28;20661;-49
2023/03/19 12:36:27;;;;;;;4.67;3.17;;;16.20;99.90;;;;;;5048761;28;20230;-49
2023/03/19 12:39:01;;;;;;;3.20;2.93;;;16.20;99.90;;;;;;5040282;28;20212;-49
2023/03/19 12:41:31;;;;;;;3.17;2.93;;;16.20;99.90;;;;;;5043654;28;20202;-49
2023/03/19 12:44:06;;;;;;;3.03;2.67;;;16.20;99.90;;;;;;5029322;28;20314;-49
2023/03/19 12:46:37;;;;;;;3.23;2.50;;;16.10;99.90;;;;;;5046947;28;20799;-53
2023/03/19 12:49:09;;;;;;;2.97;2.67;;;16.10;99.90;;;;;;5057174;28;20203;-47
2023/03/19 12:51:40;;;;;;;2.77;2.53;;;16.10;99.90;;;;;;5053466;28;20209;-48
2023/03/19 12:54:13;;;;;;;2.87;2.17;;;16.10;99.90;;;;;;5049334;28;20656;-47
2023/03/19 12:56:48;;;;;;;2.97;2.43;;;16.00;99.90;;;;;;5039351;28;20904;-48
2023/03/19 12:59:25;;;;;;;2.30;2.00;;;16.10;99.90;;;;;;5043793;28;20194;-47
2023/03/19 13:01:59;;;;;;;2.30;2.10;;;16.00;99.90;;;;;;5038552;28;20209;-50
2023/03/19 13:04:29;;;;;;;3.77;2.30;;;16.00;99.90;;;;;;5056238;28;20202;-49
2023/03/19 13:07:02;;;;;;;1.80;1.70;;;16.10;99.90;;;;;;5042341;28;20238;-49
2023/03/19 13:09:35;;;;;;;3.13;2.50;;;16.10;99.90;;;;;;5038302;28;20214;-48